Time;durP1;ratioP1;P1;durP2;ratioP2;P2;SDS_P1;SDS_P2;PMS_P1;PMS_P2;Temp;Humidity;BMP_temperature;BMP_pressure;BME280_temperature;BME280_humidity;BME280_pressure;Samples;Min_cycle;Max_cycle;Signal;HPM_P1;HPM_P2
2021/03/10 00:00:47;;;;;;;;;;;3.70;99.90;;;;;;5093829;28;20421;-76
2021/03/10 00:03:13;;;;;;;;;;;3.70;99.90;;;;;;5084731;28;20343;-76
2021/03/10 00:05:38;;;;;;;;;;;3.70;99.90;;;;;;5091436;28;19908;-80
2021/03/10 00:08:04;;;;;;;;;;;3.70;99.90;;;;;;5091461;28;19912;-76
2021/03/10 00:10:29;;;;;;;;;;;3.70;99.90;;;;;;5091701;28;19920;-76
2021/03/10 00:12:55;;;;;;;;;;;3.60;99.90;;;;;;5090196;28;20435;-76
2021/03/10 00:15:20;;;;;;;;;;;3.60;99.90;;;;;;5089249;28;19909;-76
2021/03/10 00:17:46;;;;;;;;;;;3.60;99.90;;;;;;5089705;28;20314;-76
2021/03/10 00:20:13;;;;;;;;;;;3.50;99.90;;;;;;5090141;28;19908;-76
2021/03/10 00:22:39;;;;;;;;;;;3.50;99.90;;;;;;5091237;28;19908;-76
2021/03/10 00:25:05;;;;;;;;;;;3.40;99.90;;;;;;5091283;28;20013;-76
2021/03/10 00:27:31;;;;;;;;;;;3.20;99.90;;;;;;5090743;28;20395;-75
2021/03/10 00:29:57;;;;;;;;;;;3.10;99.90;;;;;;5090144;28;19912;-75
2021/03/10 00:32:25;;;;;;;;;;;3.00;99.90;;;;;;5091258;28;19915;-76
2021/03/10 00:34:50;;;;;;;;;;;3.00;99.90;;;;;;5087108;28;19942;-76
2021/03/10 00:37:16;;;;;;;;;;;2.90;99.90;;;;;;5081724;28;19912;-76
2021/03/10 00:39:48;;;;;;;;;;;2.90;99.90;;;;;;5090063;28;20003;-75
2021/03/10 00:42:14;;;;;;;;;;;2.90;99.90;;;;;;5089739;28;19916;-76
2021/03/10 00:44:40;;;;;;;;;;;2.80;99.90;;;;;;5091354;28;19912;-76
2021/03/10 00:47:06;;;;;;;;;;;2.80;99.90;;;;;;5090879;28;19982;-76
2021/03/10 00:49:31;;;;;;;;;;;2.80;99.90;;;;;;5091091;28;19912;-76
2021/03/10 00:51:56;;;;;;;;;;;2.80;99.90;;;;;;5091146;28;19951;-76
2021/03/10 00:54:22;;;;;;;;;;;2.80;99.90;;;;;;5088423;28;20390;-76
2021/03/10 00:56:48;;;;;;;;;;;2.90;99.90;;;;;;5111021;28;19914;-76
2021/03/10 00:59:14;;;;;;;;;;;2.80;99.90;;;;;;5110128;28;19998;-76
2021/03/10 01:01:39;;;;;;;;;;;2.80;99.90;;;;;;5111337;28;19912;-76
2021/03/10 01:04:05;;;;;;;;;;;2.70;99.90;;;;;;5111347;28;19907;-76
2021/03/10 01:06:30;;;;;;;;;;;2.70;99.90;;;;;;5110988;28;19912;-76
2021/03/10 01:08:56;;;;;;;;;;;2.60;99.90;;;;;;5111173;28;19908;-76
2021/03/10 01:11:21;;;;;;;;;;;2.60;99.90;;;;;;5111272;28;20383;-75
2021/03/10 01:13:47;;;;;;;;;;;2.60;99.90;;;;;;5109935;28;19915;-75
2021/03/10 01:16:13;;;;;;;;;;;2.50;99.90;;;;;;5111230;28;19908;-76
2021/03/10 01:18:39;;;;;;;;;;;2.50;99.90;;;;;;5109730;28;19961;-76
2021/03/10 01:21:04;;;;;;;;;;;2.50;99.90;;;;;;5111400;28;19908;-76
2021/03/10 01:23:30;;;;;;;;;;;2.50;99.90;;;;;;5104902;28;19958;-76
2021/03/10 01:25:55;;;;;;;;;;;2.50;99.90;;;;;;5089112;28;20355;-76
2021/03/10 01:28:21;;;;;;;;;;;2.50;99.90;;;;;;5090598;28;19962;-76
2021/03/10 01:30:46;;;;;;;;;;;2.50;99.90;;;;;;5090737;28;20281;-76
2021/03/10 01:33:12;;;;;;;;;;;2.50;99.90;;;;;;5090537;28;19994;-75
2021/03/10 01:35:38;;;;;;;;;;;2.50;99.90;;;;;;5090545;28;19933;-75
2021/03/10 01:38:03;;;;;;;;;;;2.50;99.90;;;;;;5092767;28;20280;-76
2021/03/10 01:40:29;;;;;;;;;;;2.50;99.90;;;;;;5094281;28;19912;-76
2021/03/10 01:42:59;;;;;;;;;;;2.40;99.90;;;;;;5094328;28;19908;-76
2021/03/10 01:45:25;;;;;;;;;;;2.50;99.90;;;;;;5092987;28;19912;-76
2021/03/10 01:47:50;;;;;;;;;;;2.40;99.90;;;;;;5093637;28;19991;-76
2021/03/10 01:50:17;;;;;;;;;;;2.40;99.90;;;;;;5094179;28;19912;-76
2021/03/10 01:52:43;;;;;;;;;;;2.30;99.90;;;;;;5093997;28;19909;-75
2021/03/10 01:55:09;;;;;;;;;;;2.30;99.90;;;;;;5090118;28;20072;-76
2021/03/10 01:57:35;;;;;;;;;;;2.30;99.90;;;;;;5092150;28;19954;-75
2021/03/10 02:00:01;;;;;;;;;;;2.20;99.90;;;;;;5094223;28;19993;-75
2021/03/10 02:02:26;;;;;;;;;;;2.20;99.90;;;;;;5092103;28;20369;-76
2021/03/10 02:04:52;;;;;;;;;;;2.10;99.90;;;;;;5087742;28;20016;-76
2021/03/10 02:07:23;;;;;;;;;;;2.10;99.90;;;;;;5090260;28;20373;-75
2021/03/10 02:10:00;;;;;;;;;;;2.10;99.90;;;;;;5092693;28;19919;-76
2021/03/10 02:12:44;;;;;;;;;;;2.00;99.90;;;;;;5093986;28;20367;-75
2021/03/10 02:15:36;;;;;;;;;;;2.00;99.90;;;;;;5093720;28;19912;-76
2021/03/10 02:18:04;;;;;;;;;;;2.00;99.90;;;;;;5076257;28;19908;-76
2021/03/10 02:20:36;;;;;;;;;;;2.10;99.90;;;;;;5093661;28;20329;-76
2021/03/10 02:23:14;;;;;;;;;;;2.10;99.90;;;;;;5091777;28;20045;-75
2021/03/10 02:25:58;;;;;;;;;;;2.20;99.90;;;;;;5096675;28;19911;-76
2021/03/10 02:28:24;;;;;;;;;;;2.20;99.90;;;;;;5113677;28;20375;-76
2021/03/10 02:30:50;;;;;;;;;;;2.30;99.90;;;;;;5113684;28;19954;-76
2021/03/10 02:33:20;;;;;;;;;;;2.20;99.90;;;;;;5113684;28;19998;-76
2021/03/10 02:35:50;;;;;;;;;;;2.30;99.90;;;;;;5088447;28;20292;-76
2021/03/10 02:38:18;;;;;;;;;;;2.40;99.90;;;;;;5089736;28;20403;-76
2021/03/10 02:40:46;;;;;;;;;;;2.40;99.90;;;;;;5093076;28;19951;-76
2021/03/10 02:43:12;;;;;;;;;;;2.40;99.90;;;;;;5091884;28;20003;-75
2021/03/10 02:45:38;;;;;;;;;;;2.40;99.90;;;;;;5093006;28;20028;-76
2021/03/10 02:48:04;;;;;;;;;;;2.40;99.90;;;;;;5092768;28;19954;-76
2021/03/10 02:50:30;;;;;;;;;;;2.40;99.90;;;;;;5091799;28;20411;-76
2021/03/10 02:52:56;;;;;;;;;;;2.50;99.90;;;;;;5092896;28;19912;-75
2021/03/10 02:55:22;;;;;;;;;;;2.50;99.90;;;;;;5091551;28;20372;-76
2021/03/10 02:57:47;;;;;;;;;;;2.50;99.90;;;;;;5092461;28;19915;-76
2021/03/10 03:00:15;;;;;;;;;;;2.60;99.90;;;;;;5092926;28;19913;-76
2021/03/10 03:02:40;;;;;;;;;;;2.60;99.90;;;;;;5092376;28;19908;-77
2021/03/10 03:05:07;;;;;;;;;;;2.60;99.90;;;;;;5092714;28;20010;-76
2021/03/10 03:07:32;;;;;;;;;;;2.60;99.90;;;;;;5092060;28;19908;-76
2021/03/10 03:09:59;;;;;;;;;;;2.60;99.90;;;;;;5092666;28;20335;-76
2021/03/10 03:12:24;;;;;;;;;;;2.70;99.90;;;;;;5092400;28;20375;-76
2021/03/10 03:14:50;;;;;;;;;;;2.70;99.90;;;;;;5088150;28;20007;-76
2021/03/10 03:17:16;;;;;;;;;;;2.70;99.90;;;;;;5089857;28;19908;-76
2021/03/10 03:19:41;;;;;;;;;;;2.70;99.90;;;;;;5092065;28;20396;-76
2021/03/10 03:22:07;;;;;;;;;;;2.80;99.90;;;;;;5091035;28;20358;-77
2021/03/10 03:24:33;;;;;;;;;;;2.80;99.90;;;;;;5086916;28;20151;-76
2021/03/10 03:26:59;;;;;;;;;;;2.80;99.90;;;;;;5091931;28;20045;-75
2021/03/10 03:29:25;;;;;;;;;;;2.70;99.90;;;;;;5092191;28;19920;-75
2021/03/10 03:31:51;;;;;;;;;;;2.70;99.90;;;;;;5092227;28;19909;-75
2021/03/10 03:34:17;;;;;;;;;;;2.80;99.90;;;;;;5090459;28;20258;-75
2021/03/10 03:36:42;;;;;;;;;;;2.80;99.90;;;;;;5091804;28;20311;-75
2021/03/10 03:39:10;;;;;;;;;;;2.80;99.90;;;;;;5091781;28;19919;-76
2021/03/10 03:41:35;;;;;;;;;;;2.70;99.90;;;;;;5091864;28;19998;-76
2021/03/10 03:44:02;;;;;;;;;;;2.70;99.90;;;;;;5091768;28;19934;-75
2021/03/10 03:46:29;;;;;;;;;;;2.70;99.90;;;;;;5091559;28;19908;-76
2021/03/10 03:48:58;;;;;;;;;;;2.60;99.90;;;;;;5092013;28;19919;-75
2021/03/10 03:51:25;;;;;;;;;;;2.60;99.90;;;;;;5090502;28;19995;-76
2021/03/10 03:54:00;;;;;;;;;;;2.60;99.90;;;;;;5087530;28;20366;-76
2021/03/10 03:56:26;;;;;;;;;;;2.60;99.90;;;;;;5091159;28;19977;-76
2021/03/10 03:58:51;;;;;;;;;;;2.60;99.90;;;;;;5091404;28;20293;-75
2021/03/10 04:01:17;;;;;;;;;;;2.50;99.90;;;;;;5091579;28;20023;-76
2021/03/10 04:03:44;;;;;;;;;;;2.50;99.90;;;;;;5088368;28;19942;-76
2021/03/10 04:06:09;;;;;;;;;;;2.50;99.90;;;;;;5090410;28;19961;-75
2021/03/10 04:08:35;;;;;;;;;;;2.40;99.90;;;;;;5089768;28;19994;-76
2021/03/10 04:11:00;;;;;;;;;;;2.40;99.90;;;;;;5091451;28;19919;-76
2021/03/10 04:13:26;;;;;;;;;;;2.40;99.90;;;;;;5091387;28;20023;-76
2021/03/10 04:15:51;;;;;;;;;;;2.40;99.90;;;;;;5089607;28;20373;-75
2021/03/10 04:18:17;;;;;;;;;;;2.40;99.90;;;;;;5091272;28;19908;-76
2021/03/10 04:20:42;;;;;;;;;;;2.40;99.90;;;;;;5091297;28;19915;-76
2021/03/10 04:23:08;;;;;;;;;;;2.40;99.90;;;;;;5088129;28;19912;-75
2021/03/10 04:25:33;;;;;;;;;;;2.40;99.90;;;;;;5090034;28;19979;-75
2021/03/10 04:27:59;;;;;;;;;;;2.40;99.90;;;;;;5090817;28;19912;-75
2021/03/10 04:30:24;;;;;;;;;;;2.30;99.90;;;;;;5091023;28;20292;-75
2021/03/10 04:32:50;;;;;;;;;;;2.20;99.90;;;;;;5091145;28;19954;-75
2021/03/10 04:35:16;;;;;;;;;;;2.20;99.90;;;;;;5091115;28;19985;-76
2021/03/10 04:37:42;;;;;;;;;;;2.10;99.90;;;;;;5084821;28;20296;-76
2021/03/10 04:40:08;;;;;;;;;;;2.10;99.90;;;;;;5085298;28;19991;-76
2021/03/10 04:42:34;;;;;;;;;;;2.00;99.90;;;;;;5091072;28;19957;-75
2021/03/10 04:44:59;;;;;;;;;;;2.00;99.90;;;;;;5090861;28;19912;-76
2021/03/10 04:47:25;;;;;;;;;;;2.00;99.90;;;;;;5089286;28;19929;-75
2021/03/10 04:49:50;;;;;;;;;;;2.00;99.90;;;;;;5091199;28;20221;-75
2021/03/10 04:52:16;;;;;;;;;;;1.90;99.90;;;;;;5090877;28;19943;-76
2021/03/10 04:54:42;;;;;;;;;;;1.90;99.90;;;;;;5086966;28;19942;-76
2021/03/10 04:57:07;;;;;;;;;;;1.90;99.90;;;;;;5090582;28;19987;-76
2021/03/10 04:59:33;;;;;;;;;;;1.90;99.90;;;;;;5090720;28;19908;-75
2021/03/10 05:01:58;;;;;;;;;;;1.80;99.90;;;;;;5090878;28;19918;-75
2021/03/10 05:04:23;;;;;;;;;;;1.80;99.90;;;;;;5089395;28;19916;-76
2021/03/10 05:06:49;;;;;;;;;;;1.70;99.90;;;;;;5090565;28;20273;-75
2021/03/10 05:09:14;;;;;;;;;;;1.70;99.90;;;;;;5090697;28;19953;-75
2021/03/10 05:11:40;;;;;;;;;;;1.70;99.90;;;;;;5090842;28;19908;-75
2021/03/10 05:14:05;;;;;;;;;;;1.70;99.90;;;;;;5092987;28;20010;-77
2021/03/10 05:16:31;;;;;;;;;;;1.60;99.90;;;;;;5093256;28;20373;-75
2021/03/10 05:18:57;;;;;;;;;;;1.60;99.90;;;;;;5094527;28;19908;-75
2021/03/10 05:21:22;;;;;;;;;;;1.60;99.90;;;;;;5094669;28;19908;-75
2021/03/10 05:23:48;;;;;;;;;;;1.70;99.90;;;;;;5090746;28;19908;-75
2021/03/10 05:26:13;;;;;;;;;;;1.70;99.90;;;;;;5093954;28;19908;-75
2021/03/10 05:28:40;;;;;;;;;;;1.70;99.90;;;;;;5094133;28;19912;-75
2021/03/10 05:31:05;;;;;;;;;;;1.70;99.90;;;;;;5094244;28;19958;-75
2021/03/10 05:33:31;;;;;;;;;;;1.70;99.90;;;;;;5093015;28;19946;-76
2021/03/10 05:35:57;;;;;;;;;;;1.70;99.90;;;;;;5093906;28;19962;-75
2021/03/10 05:38:22;;;;;;;;;;;1.80;99.90;;;;;;5094597;28;19915;-76
2021/03/10 05:40:48;;;;;;;;;;;1.80;99.90;;;;;;5094240;28;19913;-75
2021/03/10 05:43:15;;;;;;;;;;;1.80;99.90;;;;;;5094013;28;20177;-75
2021/03/10 05:45:40;;;;;;;;;;;1.90;99.90;;;;;;5093951;28;19908;-76
2021/03/10 05:48:06;;;;;;;;;;;1.90;99.90;;;;;;5094036;28;20369;-75
2021/03/10 05:50:32;;;;;;;;;;;1.90;99.90;;;;;;5093999;28;19919;-75
2021/03/10 05:52:58;;;;;;;;;;;2.00;99.90;;;;;;5092590;28;19908;-75
2021/03/10 05:55:24;;;;;;;;;;;2.00;99.90;;;;;;5091608;28;20002;-75
2021/03/10 05:57:49;;;;;;;;;;;2.00;99.90;;;;;;5093299;28;20003;-76
2021/03/10 06:00:15;;;;;;;;;;;2.00;99.90;;;;;;5093979;28;20270;-76
2021/03/10 06:02:41;;;;;;;;;;;2.10;99.90;;;;;;5092427;28;19908;-76
2021/03/10 06:05:19;;;;;;;;;;;2.10;99.90;;;;;;5081206;28;19917;-76
2021/03/10 06:07:45;;;;;;;;;;;2.10;99.90;;;;;;5084928;28;19959;-76
2021/03/10 06:10:10;;;;;;;;;;;2.20;99.90;;;;;;5091972;28;19981;-75
2021/03/10 06:12:45;;;;;;;;;;;2.20;99.90;;;;;;5093157;28;19915;-76
2021/03/10 06:15:12;;;;;;;;;;;2.30;99.90;;;;;;5093127;28;20373;-76
2021/03/10 06:17:41;;;;;;;;;;;2.30;99.90;;;;;;5091708;28;19912;-76
2021/03/10 06:20:07;;;;;;;;;;;2.30;99.90;;;;;;5093791;28;19912;-77
2021/03/10 06:22:33;;;;;;;;;;;2.40;99.90;;;;;;5093280;28;20278;-76
2021/03/10 06:24:59;;;;;;;;;;;2.40;99.90;;;;;;5087690;28;20337;-77
2021/03/10 06:27:25;;;;;;;;;;;2.40;99.90;;;;;;5092532;28;20003;-75
2021/03/10 06:29:54;;;;;;;;;;;2.40;99.90;;;;;;5092665;28;19939;-76
2021/03/10 06:32:20;;;;;;;;;;;2.50;99.90;;;;;;5093305;28;19912;-75
2021/03/10 06:34:47;;;;;;;;;;;2.50;99.90;;;;;;5093254;28;19938;-75
2021/03/10 06:37:23;;;;;;;;;;;2.50;99.90;;;;;;5090853;28;20284;-75
2021/03/10 06:39:49;;;;;;;;;;;2.60;99.90;;;;;;5081695;28;19917;-76
2021/03/10 06:42:15;;;;;;;;;;;2.60;99.90;;;;;;5088208;28;19938;-76
2021/03/10 06:44:50;;;;;;;;;;;2.70;99.90;;;;;;5093382;28;19935;-76
2021/03/10 06:47:16;;;;;;;;;;;2.70;99.90;;;;;;5093091;28;19908;-76
2021/03/10 06:49:48;;;;;;;;;;;2.70;99.90;;;;;;5092804;28;19919;-75
2021/03/10 06:52:14;;;;;;;;;;;2.80;99.90;;;;;;5092638;28;19912;-76
2021/03/10 06:54:43;;;;;;;;;;;2.80;99.90;;;;;;5087391;28;19919;-76
2021/03/10 06:57:14;;;;;;;;;;;2.90;99.90;;;;;;5090981;28;20437;-76
2021/03/10 06:59:46;;;;;;;;;;;3.00;99.90;;;;;;5091625;28;19919;-76
2021/03/10 07:02:16;;;;;;;;;;;3.10;99.90;;;;;;5092586;28;19915;-76
2021/03/10 07:04:42;;;;;;;;;;;3.10;99.90;;;;;;5092575;28;19912;-76
2021/03/10 07:07:08;;;;;;;;;;;3.20;99.90;;;;;;5092503;28;20343;-75
2021/03/10 07:09:34;;;;;;;;;;;3.30;99.90;;;;;;5092227;28;19912;-75
2021/03/10 07:12:00;;;;;;;;;;;3.30;99.90;;;;;;5092479;28;20431;-76
2021/03/10 07:14:25;;;;;;;;;;;3.40;99.90;;;;;;5092347;28;19908;-76
2021/03/10 07:16:51;;;;;;;;;;;3.40;99.90;;;;;;5092129;28;19954;-76
2021/03/10 07:19:17;;;;;;;;;;;3.50;99.90;;;;;;5092056;28;19951;-76
2021/03/10 07:21:50;;;;;;;;;;;3.50;99.90;;;;;;5092427;28;20373;-76
2021/03/10 07:24:42;;;;;;;;;;;3.50;99.90;;;;;;5088543;28;19954;-76
2021/03/10 07:27:09;;;;;;;;;;;3.50;99.90;;;;;;5090521;28;19969;-76
2021/03/10 07:29:35;;;;;;;;;;;3.60;99.90;;;;;;5091605;28;20003;-78
2021/03/10 07:32:02;;;;;;;;;;;3.70;99.90;;;;;;5091594;28;19919;-76
2021/03/10 07:34:27;;;;;;;;;;;3.70;99.90;;;;;;5091892;28;20262;-76
2021/03/10 07:36:53;;;;;;;;;;;3.80;99.90;;;;;;5086123;28;19930;-77
2021/03/10 07:39:20;;;;;;;;;;;3.90;99.90;;;;;;5086569;28;19916;-75
2021/03/10 07:41:46;;;;;;;;;;;4.00;99.90;;;;;;5097866;28;19980;-76
2021/03/10 07:44:29;;;;;;;;;;;4.10;99.90;;;;;;5089792;28;19908;-78
2021/03/10 07:47:07;;;;;;;;;;;4.20;99.90;;;;;;5085471;28;19911;-76
2021/03/10 07:49:32;;;;;;;;;;;4.30;99.90;;;;;;5082609;28;20334;-76
2021/03/10 07:52:11;;;;;;;;;;;4.40;99.90;;;;;;5091951;28;19912;-76
2021/03/10 07:54:38;;;;;;;;;;;4.50;99.90;;;;;;5099817;28;19908;-75
2021/03/10 07:57:12;;;;;;;;;;;4.60;99.90;;;;;;5106985;28;19908;-76
2021/03/10 07:59:39;;;;;;;;;;;4.60;99.90;;;;;;5112264;28;19915;-76
2021/03/10 08:02:06;;;;;;;;;;;4.70;99.90;;;;;;5110895;28;19951;-76
2021/03/10 08:04:32;;;;;;;;;;;4.60;99.90;;;;;;5096523;28;20058;-76
2021/03/10 08:06:58;;;;;;;;;;;4.60;99.90;;;;;;5091290;28;19939;-76
2021/03/10 08:09:24;;;;;;;;;;;4.60;99.90;;;;;;5091721;28;19915;-76
2021/03/10 08:12:06;;;;;;;;;;;4.60;99.90;;;;;;5091681;28;19919;-78
2021/03/10 08:14:40;;;;;;;;;;;4.70;99.90;;;;;;5090452;28;19908;-76
2021/03/10 08:17:06;;;;;;;;;;;4.70;99.90;;;;;;5091298;28;20504;-76
2021/03/10 08:19:33;;;;;;;;;;;4.70;99.90;;;;;;5091543;28;19931;-76
2021/03/10 08:21:58;;;;;;;;;;;4.70;99.90;;;;;;5091638;28;19908;-76
2021/03/10 08:24:25;;;;;;;;;;;4.80;99.90;;;;;;5087668;28;20391;-76
2021/03/10 08:26:53;;;;;;;;;;;4.90;99.90;;;;;;5089781;28;20011;-76
2021/03/10 08:29:19;;;;;;;;;;;4.90;99.90;;;;;;5090155;28;19908;-76
2021/03/10 08:31:49;;;;;;;;;;;5.10;99.90;;;;;;5090280;28;20269;-76
2021/03/10 08:34:16;;;;;;;;;;;5.20;99.90;;;;;;5090988;28;20042;-76
2021/03/10 08:36:41;;;;;;;;;;;5.30;99.90;;;;;;5091071;28;19930;-76
2021/03/10 08:39:08;;;;;;;;;;;5.50;99.90;;;;;;5081930;28;20421;-76
2021/03/10 08:41:48;;;;;;;;;;;5.60;99.90;;;;;;5086706;28;19908;-76
2021/03/10 08:44:13;;;;;;;;;;;5.60;99.90;;;;;;5089667;28;19908;-76
2021/03/10 08:46:40;;;;;;;;;;;5.80;99.90;;;;;;5090251;28;19915;-76
2021/03/10 08:49:16;;;;;;;;;;;5.80;99.90;;;;;;5095126;28;19995;-76
2021/03/10 08:51:41;;;;;;;;;;;5.90;99.90;;;;;;5095446;28;19912;-76
2021/03/10 08:54:07;;;;;;;;;;;6.00;99.90;;;;;;5095247;28;19961;-77
2021/03/10 08:56:32;;;;;;;;;;;6.10;99.90;;;;;;5094966;28;19912;-76
2021/03/10 08:58:58;;;;;;;;;;;6.20;99.90;;;;;;5095248;28;19919;-76
2021/03/10 09:01:24;;;;;;;;;;;6.30;99.90;;;;;;5095031;28;20026;-76
2021/03/10 09:03:49;;;;;;;;;;;6.40;99.90;;;;;;5095328;28;19935;-76
2021/03/10 09:06:15;;;;;;;;;;;6.40;99.90;;;;;;5094909;28;19958;-76
2021/03/10 09:08:40;;;;;;;;;;;6.50;99.90;;;;;;5095179;28;19912;-76
2021/03/10 09:11:06;;;;;;;;;;;6.50;99.90;;;;;;5089795;28;19934;-76
2021/03/10 09:13:32;;;;;;;;;;;6.50;99.90;;;;;;5089421;28;20025;-76
2021/03/10 09:16:07;;;;;;;;;;;6.40;99.90;;;;;;5077575;28;19916;-78
2021/03/10 09:18:34;;;;;;;;;;;6.40;99.90;;;;;;5092545;28;19948;-76
2021/03/10 09:20:59;;;;;;;;;;;6.40;99.90;;;;;;5094869;28;19919;-77
2021/03/10 09:23:26;;;;;;;;;;;6.40;99.90;;;;;;5094725;28;19912;-76
2021/03/10 09:25:53;;;;;;;;;;;6.50;99.90;;;;;;5093146;28;19915;-78
2021/03/10 09:28:19;;;;;;;;;;;6.50;99.90;;;;;;5094458;28;19915;-76
2021/03/10 09:30:46;;;;;;;;;;;6.60;99.90;;;;;;5093297;28;20006;-76
2021/03/10 09:33:17;;;;;;;;;;;6.60;99.90;;;;;;5093480;28;20313;-76
2021/03/10 09:35:50;;;;;;;;;;;6.70;99.90;;;;;;5094267;28;19922;-76
2021/03/10 09:38:15;;;;;;;;;;;6.70;99.90;;;;;;5095380;28;20388;-76
2021/03/10 09:40:42;;;;;;;;;;;6.80;99.90;;;;;;5091892;28;19939;-76
2021/03/10 09:43:09;;;;;;;;;;;7.00;99.90;;;;;;5091093;28;19912;-78
2021/03/10 09:45:36;;;;;;;;;;;7.10;99.90;;;;;;5092244;28;19963;-76
2021/03/10 09:48:03;;;;;;;;;;;7.20;99.90;;;;;;5093614;28;19955;-76
2021/03/10 09:50:32;;;;;;;;;;;7.40;99.90;;;;;;5094060;28;19916;-77
2021/03/10 09:52:59;;;;;;;;;;;7.50;99.90;;;;;;5092693;28;19931;-78
2021/03/10 09:55:25;;;;;;;;;;;7.70;99.90;;;;;;5091566;28;20356;-77
2021/03/10 09:58:03;;;;;;;;;;;7.90;99.90;;;;;;5093388;28;19915;-76
2021/03/10 10:00:29;;;;;;;;;;;8.10;99.90;;;;;;5092757;28;20377;-76
2021/03/10 10:02:55;;;;;;;;;;;8.30;99.90;;;;;;5094021;28;20006;-77
2021/03/10 10:05:21;;;;;;;;;;;8.50;99.90;;;;;;5083594;28;20369;-80
2021/03/10 10:07:47;;;;;;;;;;;8.60;99.90;;;;;;5089296;28;19916;-78
2021/03/10 10:10:12;;;;;;;;;;;8.80;99.90;;;;;;5093508;28;19916;-79
2021/03/10 10:12:41;;;;;;;;;;;9.00;99.90;;;;;;5093760;28;19915;-77
2021/03/10 10:15:07;;;;;;;;;;;9.20;99.90;;;;;;5093745;28;19908;-78
2021/03/10 10:17:32;;;;;;;;;;;9.60;99.90;;;;;;5093512;28;19916;-79
2021/03/10 10:19:58;;;;;;;;;;;9.90;99.90;;;;;;5093788;28;20396;-77
2021/03/10 10:22:23;;;;;;;;;;;10.20;99.90;;;;;;5093389;28;19997;-77
2021/03/10 10:24:49;;;;;;;;;;;10.50;99.90;;;;;;5089598;28;19920;-77
2021/03/10 10:27:14;;;;;;;;;;;10.70;99.90;;;;;;5093116;28;19961;-77
2021/03/10 10:29:40;;;;;;;;;;;10.90;99.30;;;;;;5093365;28;20014;-77
2021/03/10 10:32:05;;;;;;;;;;;11.20;99.20;;;;;;5093280;28;19912;-77
2021/03/10 10:34:31;;;;;;;;;;;11.50;98.20;;;;;;5092015;28;19919;-80
2021/03/10 10:36:56;;;;;;;;;;;11.50;96.70;;;;;;5091666;28;19954;-77
2021/03/10 10:39:22;;;;;;;;;;;11.40;95.70;;;;;;5080220;28;19917;-77
2021/03/10 10:41:47;;;;;;;;;;;11.30;95.80;;;;;;5087904;28;19908;-77
2021/03/10 10:44:13;;;;;;;;;;;11.30;96.50;;;;;;5082311;28;19908;-79
2021/03/10 10:46:38;;;;;;;;;;;11.10;94.90;;;;;;5090954;28;20392;-77
2021/03/10 10:49:04;;;;;;;;;;;10.80;94.50;;;;;;5085815;28;20285;-77
2021/03/10 10:51:29;;;;;;;;;;;10.30;95.00;;;;;;5090496;28;19916;-79
2021/03/10 10:53:55;;;;;;;;;;;9.90;95.20;;;;;;5088689;28;19911;-77
2021/03/10 10:56:20;;;;;;;;;;;9.60;95.90;;;;;;5096988;28;19908;-77
2021/03/10 10:58:46;;;;;;;;;;;9.30;97.40;;;;;;5087057;28;20337;-77
2021/03/10 11:01:11;;;;;;;;;;;9.10;98.40;;;;;;5092829;28;19916;-77
2021/03/10 11:03:37;;;;;;;;;;;8.90;97.40;;;;;;5087269;28;19908;-77
2021/03/10 11:06:02;;;;;;;;;;;8.70;96.70;;;;;;5092343;28;19908;-78
2021/03/10 11:08:28;;;;;;;;;;;8.50;96.90;;;;;;5085261;28;20000;-78
2021/03/10 11:10:53;;;;;;;;;;;8.30;97.30;;;;;;5090206;28;19912;-77
2021/03/10 11:13:19;;;;;;;;;;;8.20;97.30;;;;;;5092377;28;19915;-77
2021/03/10 11:15:44;;;;;;;;;;;8.10;98.20;;;;;;5092392;28;19914;-77
2021/03/10 11:18:10;;;;;;;;;;;8.00;98.10;;;;;;5092658;28;19919;-78
2021/03/10 11:20:35;;;;;;;;;;;8.00;97.20;;;;;;5091011;28;19908;-76
2021/03/10 11:23:01;;;;;;;;;;;7.90;98.10;;;;;;5088824;28;20291;-77
2021/03/10 11:25:26;;;;;;;;;;;8.00;98.90;;;;;;5090332;28;19908;-77
2021/03/10 11:27:52;;;;;;;;;;;8.00;97.80;;;;;;5090730;28;19931;-76
2021/03/10 11:30:18;;;;;;;;;;;8.10;97.50;;;;;;5092260;28;20007;-77
2021/03/10 11:32:43;;;;;;;;;;;8.10;97.30;;;;;;5092321;28;19908;-76
2021/03/10 11:35:09;;;;;;;;;;;8.10;97.60;;;;;;5092103;28;19916;-76
2021/03/10 11:37:35;;;;;;;;;;;8.10;98.10;;;;;;5090358;28;19909;-77
2021/03/10 11:40:01;;;;;;;;;;;8.20;96.90;;;;;;5092205;28;19915;-79
2021/03/10 11:42:26;;;;;;;;;;;8.40;97.40;;;;;;5092047;28;20349;-76
2021/03/10 11:44:52;;;;;;;;;;;8.60;98.10;;;;;;5092167;28;19908;-77
2021/03/10 11:47:17;;;;;;;;;;;8.90;97.60;;;;;;5085007;28;19908;-77
2021/03/10 11:49:43;;;;;;;;;;;9.00;96.90;;;;;;5091735;28;19912;-78
2021/03/10 11:52:09;;;;;;;;;;;9.10;96.80;;;;;;5091593;28;19998;-76
2021/03/10 11:54:34;;;;;;;;;;;9.10;95.90;;;;;;5087802;28;20361;-76
2021/03/10 11:57:00;;;;;;;;;;;9.20;96.70;;;;;;5091450;28;19958;-77
2021/03/10 11:59:26;;;;;;;;;;;9.20;96.60;;;;;;5091796;28;20349;-77
2021/03/10 12:01:51;;;;;;;;;;;9.30;96.90;;;;;;5090508;28;19912;-78
2021/03/10 12:04:17;;;;;;;;;;;9.20;96.40;;;;;;5084992;28;20396;-76
2021/03/10 12:06:42;;;;;;;;;;;9.10;96.30;;;;;;5084728;28;20330;-76
2021/03/10 12:09:08;;;;;;;;;;;9.00;96.70;;;;;;5091156;28;19955;-77
2021/03/10 12:11:34;;;;;;;;;;;9.00;97.30;;;;;;5091297;28;19958;-78
2021/03/10 12:14:00;;;;;;;;;;;9.00;97.10;;;;;;5091496;28;19915;-77
2021/03/10 12:16:25;;;;;;;;;;;9.00;96.80;;;;;;5091243;28;19912;-78
2021/03/10 12:18:51;;;;;;;;;;;9.00;97.50;;;;;;5090473;28;19908;-76
2021/03/10 12:21:16;;;;;;;;;;;9.10;96.70;;;;;;5089758;28;19908;-76
2021/03/10 12:23:41;;;;;;;;;;;9.30;96.80;;;;;;5091294;28;19914;-79
2021/03/10 12:26:07;;;;;;;;;;;9.30;96.00;;;;;;5090910;28;19923;-76
2021/03/10 12:28:32;;;;;;;;;;;9.30;96.00;;;;;;5090146;28;19908;-77
2021/03/10 12:30:58;;;;;;;;;;;9.30;96.20;;;;;;5090022;28;19912;-77
2021/03/10 12:33:24;;;;;;;;;;;9.30;95.80;;;;;;5091626;28;19916;-77
2021/03/10 12:35:49;;;;;;;;;;;9.40;95.60;;;;;;5091214;28;20381;-77
2021/03/10 12:38:14;;;;;;;;;;;9.50;95.20;;;;;;5084011;28;19926;-77
2021/03/10 12:40:40;;;;;;;;;;;9.60;94.90;;;;;;5081514;28;19908;-77
2021/03/10 12:43:05;;;;;;;;;;;9.70;95.20;;;;;;5089987;28;20003;-77
2021/03/10 12:45:31;;;;;;;;;;;9.70;95.20;;;;;;5089599;28;19908;-77
2021/03/10 12:47:56;;;;;;;;;;;9.90;95.10;;;;;;5087160;28;20265;-77
2021/03/10 12:50:22;;;;;;;;;;;10.00;93.10;;;;;;5088366;28;19924;-77
2021/03/10 12:52:47;;;;;;;;;;;10.00;92.90;;;;;;5092385;28;20521;-77
2021/03/10 12:55:13;;;;;;;;;;;10.10;92.20;;;;;;5090842;28;19908;-77
2021/03/10 12:57:39;;;;;;;;;;;10.10;92.80;;;;;;5089394;28;19959;-77
2021/03/10 13:00:07;;;;;;;;;;;10.10;92.70;;;;;;5091111;28;19909;-77
2021/03/10 13:02:33;;;;;;;;;;;10.00;91.60;;;;;;5090772;28;19954;-77
2021/03/10 13:04:59;;;;;;;;;;;9.90;92.10;;;;;;5090782;28;19908;-76
2021/03/10 13:07:24;;;;;;;;;;;9.80;91.90;;;;;;5090774;28;19908;-77
2021/03/10 13:09:50;;;;;;;;;;;9.90;91.30;;;;;;5090746;28;20459;-77
2021/03/10 13:12:15;;;;;;;;;;;9.80;90.90;;;;;;5089681;28;19908;-77
2021/03/10 13:14:42;;;;;;;;;;;9.80;90.70;;;;;;5090836;28;20003;-77
2021/03/10 13:17:07;;;;;;;;;;;9.70;90.90;;;;;;5089306;28;20011;-77
2021/03/10 13:19:33;;;;;;;;;;;9.70;90.60;;;;;;5090503;28;20019;-77
2021/03/10 13:21:58;;;;;;;;;;;9.70;90.80;;;;;;5089625;28;19915;-77
2021/03/10 13:24:24;;;;;;;;;;;9.80;90.90;;;;;;5087112;28;19912;-77
2021/03/10 13:26:49;;;;;;;;;;;9.90;90.10;;;;;;5090404;28;19912;-77
2021/03/10 13:29:14;;;;;;;;;;;10.00;90.60;;;;;;5089666;28;19908;-77
2021/03/10 13:31:40;;;;;;;;;;;10.10;87.60;;;;;;5089497;28;19972;-77
2021/03/10 13:34:07;;;;;;;;;;;10.10;90.20;;;;;;5092450;28;19908;-77
2021/03/10 13:36:33;;;;;;;;;;;10.10;88.10;;;;;;5092113;28;20359;-77
2021/03/10 13:38:58;;;;;;;;;;;10.00;89.20;;;;;;5091062;28;19919;-77
2021/03/10 13:41:24;;;;;;;;;;;10.00;89.40;;;;;;5090131;28;20046;-77
2021/03/10 13:43:49;;;;;;;;;;;10.10;89.90;;;;;;5098606;28;19998;-77
2021/03/10 13:46:15;;;;;;;;;;;10.20;89.60;;;;;;5091403;28;19908;-77
2021/03/10 13:48:40;;;;;;;;;;;10.10;88.80;;;;;;5114331;28;19930;-77
2021/03/10 13:51:06;;;;;;;;;;;10.20;89.30;;;;;;5114610;28;20284;-77
2021/03/10 13:53:31;;;;;;;;;;;10.30;88.80;;;;;;5108273;28;19961;-77
2021/03/10 13:55:57;;;;;;;;;;;10.50;88.50;;;;;;5093901;28;20098;-77
2021/03/10 13:58:22;;;;;;;;;;;10.50;89.70;;;;;;5094377;28;19915;-77
2021/03/10 14:00:48;;;;;;;;;;;10.50;87.50;;;;;;5092845;28;19908;-77
2021/03/10 14:03:14;;;;;;;;;;;10.40;90.10;;;;;;5093853;28;20418;-77
2021/03/10 14:05:39;;;;;;;;;;;10.20;87.60;;;;;;5088262;28;20298;-77
2021/03/10 14:08:05;;;;;;;;;;;10.10;89.40;;;;;;5086268;28;19909;-77
2021/03/10 14:10:30;;;;;;;;;;;10.10;88.80;;;;;;5093763;28;20360;-77
2021/03/10 14:12:56;;;;;;;;;;;10.00;89.80;;;;;;5092632;28;20344;-77
2021/03/10 14:15:21;;;;;;;;;;;10.00;90.40;;;;;;5093922;28;19912;-77
2021/03/10 14:17:47;;;;;;;;;;;10.00;90.10;;;;;;5092126;28;19959;-77
2021/03/10 14:20:13;;;;;;;;;;;10.10;90.60;;;;;;5092517;28;19912;-77
2021/03/10 14:22:39;;;;;;;;;;;10.20;89.60;;;;;;5093633;28;19915;-77
2021/03/10 14:25:06;;;;;;;;;;;10.30;86.40;;;;;;5089791;28;20010;-77